Time;durP1;ratioP1;P1;durP2;ratioP2;P2;SDS_P1;SDS_P2;PMS_P1;PMS_P2;Temp;Humidity;BMP_temperature;BMP_pressure;BME280_temperature;BME280_humidity;BME280_pressure;Samples;Min_cycle;Max_cycle;Signal;HPM_P1;HPM_P2
2022/07/29 00:45:47;;;;;;;6.43;1.20;;;20.20;60.50;;;;;;2072841;28;20026;-69
2022/07/29 00:46:47;;;;;;;3.25;1.35;;;20.20;60.40;;;;;;2078410;28;20021;-69
2022/07/29 00:47:48;;;;;;;3.92;1.48;;;20.30;60.40;;;;;;2077483;28;20029;-69
2022/07/29 00:48:49;;;;;;;5.25;1.65;;;20.30;60.30;;;;;;2077377;28;20481;-69
2022/07/29 00:49:49;;;;;;;9.65;1.88;;;20.30;60.30;;;;;;2076051;28;20029;-69
2022/07/29 00:50:50;;;;;;;4.15;1.40;;;20.30;60.30;;;;;;2107812;28;20631;-69
2022/07/29 00:51:51;;;;;;;5.18;1.50;;;20.30;60.40;;;;;;2109366;28;20574;-69
2022/07/29 00:52:52;;;;;;;4.07;1.55;;;20.30;60.50;;;;;;2087056;28;20459;-69
2022/07/29 00:53:53;;;;;;;2.97;1.58;;;20.30;60.50;;;;;;2079522;28;20022;-69
2022/07/29 00:54:54;;;;;;;4.00;1.60;;;20.30;60.40;;;;;;2078736;28;20013;-69
2022/07/29 00:55:55;;;;;;;4.53;1.75;;;20.30;60.40;;;;;;2076017;28;20037;-69
2022/07/29 00:56:58;;;;;;;5.88;1.40;;;20.30;60.40;;;;;;2077716;28;20584;-69
2022/07/29 00:58:00;;;;;;;4.80;1.23;;;20.30;60.50;;;;;;2077816;28;20453;-69
2022/07/29 00:59:00;;;;;;;4.85;1.70;;;20.30;60.60;;;;;;2077453;28;20049;-69
2022/07/29 01:00:06;;;;;;;6.68;1.75;;;20.40;60.70;;;;;;2077086;28;20018;-69
2022/07/29 01:01:07;;;;;;;7.60;2.03;;;20.30;60.40;;;;;;2075860;28;20029;-69
2022/07/29 01:02:07;;;;;;;3.03;1.52;;;20.30;60.40;;;;;;2077923;28;20096;-69
2022/07/29 01:03:08;;;;;;;3.63;1.55;;;20.30;60.50;;;;;;2078691;28;20017;-69
2022/07/29 01:04:09;;;;;;;2.85;1.40;;;20.30;60.70;;;;;;2076543;28;20053;-69
2022/07/29 01:05:12;;;;;;;5.35;1.65;;;20.30;60.70;;;;;;2077100;28;20041;-69
2022/07/29 01:06:14;;;;;;;4.40;1.40;;;20.30;60.60;;;;;;2078703;28;20104;-69
2022/07/29 01:07:16;;;;;;;6.78;1.50;;;20.30;60.80;;;;;;2077849;28;20043;-69
2022/07/29 01:08:17;;;;;;;4.68;1.95;;;20.30;61.00;;;;;;2078908;28;20010;-69
2022/07/29 01:09:18;;;;;;;3.47;1.60;;;20.30;60.90;;;;;;2077324;28;20017;-69
2022/07/29 01:10:21;;;;;;;4.32;1.70;;;20.30;60.80;;;;;;2077184;28;20013;-69
2022/07/29 01:11:21;;;;;;;3.90;1.40;;;20.30;60.80;;;;;;2077121;28;20026;-69
2022/07/29 01:12:27;;;;;;;3.17;1.80;;;20.30;60.80;;;;;;2078643;28;20461;-69
2022/07/29 01:13:30;;;;;;;2.22;1.38;;;20.30;60.80;;;;;;2076761;28;20018;-69
2022/07/29 01:14:31;;;;;;;5.47;1.48;;;20.20;60.90;;;;;;2078581;28;20041;-69
2022/07/29 01:15:37;;;;;;;5.03;1.67;;;20.20;60.90;;;;;;2077452;28;20026;-69
2022/07/29 01:16:50;;;;;;;5.38;1.50;;;20.20;61.00;;;;;;2077786;28;20117;-69
2022/07/29 01:18:17;;;;;;;3.75;1.50;;;20.20;61.00;;;;;;2077925;28;20018;-69
2022/07/29 01:19:42;;;;;;;2.95;1.50;;;20.20;61.70;;;;;;2077180;28;20028;-70
2022/07/29 01:20:45;;;;;;;3.95;1.55;;;20.20;61.70;;;;;;2077933;28;20018;-69
2022/07/29 01:21:51;;;;;;;6.85;1.75;;;20.10;61.50;;;;;;2074677;28;20096;-69
2022/07/29 01:23:07;;;;;;;8.57;1.92;;;20.10;61.50;;;;;;2076306;28;20672;-69
2022/07/29 01:24:15;;;;;;;3.67;1.42;;;20.10;61.50;;;;;;2073803;28;20026;-69
2022/07/29 01:25:43;;;;;;;4.90;1.77;;;20.10;61.60;;;;;;2108321;27;20037;-69
2022/07/29 01:26:52;;;;;;;3.67;1.20;;;20.10;62.00;;;;;;2128616;27;20034;-69
2022/07/29 01:28:35;;;;;;;4.30;1.50;;;20.10;61.50;;;;;;2126964;27;20076;-69
2022/07/29 01:29:41;;;;;;;6.93;1.75;;;20.10;62.10;;;;;;2125256;27;20049;-69
2022/07/29 01:30:44;;;;;;;5.20;1.33;;;20.10;61.70;;;;;;2128227;27;20471;-69
2022/07/29 01:31:55;;;;;;;3.95;1.80;;;20.10;61.80;;;;;;2128615;27;20074;-69
2022/07/29 01:33:02;;;;;;;4.80;1.63;;;20.10;62.10;;;;;;2129034;27;20019;-69
2022/07/29 01:34:08;;;;;;;6.20;1.70;;;20.10;62.10;;;;;;2128476;27;20026;-69
2022/07/29 01:35:24;;;;;;;9.50;2.33;;;20.10;62.30;;;;;;2127669;27;20049;-69
2022/07/29 01:36:33;;;;;;;3.35;1.40;;;20.10;62.30;;;;;;2128905;27;20018;-69
2022/07/29 01:37:45;;;;;;;4.05;1.50;;;20.10;62.00;;;;;;2125037;27;20020;-69
2022/07/29 01:38:57;;;;;;;6.00;1.55;;;20.00;62.70;;;;;;2129247;27;20019;-69
2022/07/29 01:39:59;;;;;;;5.68;1.73;;;20.00;62.40;;;;;;2125667;27;20049;-69
2022/07/29 01:41:07;;;;;;;4.88;1.80;;;20.00;62.60;;;;;;2119074;27;20427;-69
2022/07/29 01:42:25;;;;;;;4.95;2.00;;;20.00;62.70;;;;;;2120272;27;20012;-69
2022/07/29 01:43:52;;;;;;;6.95;2.00;;;20.00;62.90;;;;;;2127402;27;20378;-69
2022/07/29 01:45:36;;;;;;;3.53;1.35;;;19.90;63.20;;;;;;2123725;27;20061;-69
2022/07/29 01:46:41;;;;;;;6.05;2.00;;;19.90;63.60;;;;;;2124787;27;20026;-69
2022/07/29 01:48:03;;;;;;;3.55;1.65;;;19.90;63.20;;;;;;2125168;27;20049;-69
2022/07/29 01:49:12;;;;;;;2.47;1.52;;;19.90;63.60;;;;;;2116609;27;20020;-69
2022/07/29 01:50:17;;;;;;;4.10;1.48;;;19.90;63.50;;;;;;2115561;27;20042;-69
2022/07/29 01:51:27;;;;;;;4.22;1.20;;;19.90;63.50;;;;;;2128438;27;20096;-69
2022/07/29 01:52:36;;;;;;;4.40;1.63;;;19.90;63.60;;;;;;2127531;27;20015;-69
2022/07/29 01:53:45;;;;;;;3.80;1.52;;;19.90;63.70;;;;;;2130160;27;20071;-69
2022/07/29 01:54:54;;;;;;;3.70;1.60;;;19.90;63.70;;;;;;2128850;27;20481;-69
2022/07/29 01:55:57;;;;;;;8.88;1.95;;;19.90;63.50;;;;;;2125093;27;20031;-69
2022/07/29 01:57:00;;;;;;;6.53;1.88;;;19.90;63.70;;;;;;2126397;27;20015;-69
2022/07/29 01:58:04;;;;;;;2.53;1.70;;;19.90;63.50;;;;;;2126965;27;20062;-69
2022/07/29 01:59:07;;;;;;;2.85;1.50;;;19.90;63.80;;;;;;2126358;27;20050;-69
2022/07/29 02:00:09;;;;;;;8.13;2.15;;;19.90;63.70;;;;;;2126326;27;20011;-69
2022/07/29 02:01:11;;;;;;;3.30;1.40;;;19.90;63.90;;;;;;2126485;27;20046;-69
2022/07/29 02:02:15;;;;;;;4.43;1.60;;;19.90;63.90;;;;;;2127244;27;20503;-69
2022/07/29 02:03:18;;;;;;;2.85;1.73;;;19.90;63.80;;;;;;2127106;27;20076;-69
2022/07/29 02:04:20;;;;;;;4.45;1.73;;;19.90;64.00;;;;;;2126381;27;20019;-69
2022/07/29 02:05:22;;;;;;;8.07;1.83;;;19.90;63.90;;;;;;2117156;27;20462;-69
2022/07/29 02:06:25;;;;;;;4.18;1.65;;;19.90;63.80;;;;;;2115106;27;20023;-69
2022/07/29 02:07:29;;;;;;;7.68;1.85;;;19.90;63.60;;;;;;2126242;27;20018;-69
2022/07/29 02:08:32;;;;;;;4.10;1.80;;;19.90;64.00;;;;;;2124679;27;20065;-69
2022/07/29 02:09:35;;;;;;;3.22;1.55;;;19.90;63.70;;;;;;2126603;27;20042;-69
2022/07/29 02:10:39;;;;;;;2.55;1.40;;;19.90;63.40;;;;;;2128841;27;20023;-69
2022/07/29 02:11:46;;;;;;;2.78;1.25;;;19.90;63.40;;;;;;2126782;27;20033;-69
2022/07/29 02:12:48;;;;;;;2.47;1.58;;;19.90;63.70;;;;;;2129475;27;20050;-69
2022/07/29 02:13:51;;;;;;;5.00;1.77;;;19.90;63.50;;;;;;2126501;27;20044;-69
2022/07/29 02:14:54;;;;;;;3.30;1.50;;;19.90;63.70;;;;;;2125431;27;20064;-69
2022/07/29 02:15:57;;;;;;;3.13;1.40;;;19.90;64.10;;;;;;2124493;27;20023;-69
2022/07/29 02:17:00;;;;;;;4.18;1.58;;;19.90;63.80;;;;;;2125114;27;20026;-69
2022/07/29 02:18:18;;;;;;;4.57;1.70;;;19.90;63.90;;;;;;2128783;27;20015;-69
2022/07/29 02:19:20;;;;;;;5.25;1.60;;;19.90;64.90;;;;;;2127171;27;20019;-69
2022/07/29 02:20:23;;;;;;;3.22;1.65;;;19.80;64.80;;;;;;2129753;27;20015;-69
2022/07/29 02:21:25;;;;;;;3.63;1.48;;;19.80;64.90;;;;;;2127744;27;20022;-69
2022/07/29 02:22:29;;;;;;;9.80;1.85;;;19.80;64.80;;;;;;2128390;27;20030;-69
2022/07/29 02:23:32;;;;;;;4.50;1.27;;;19.80;64.90;;;;;;2124051;27;20027;-69
2022/07/29 02:24:33;;;;;;;5.88;1.40;;;19.80;64.80;;;;;;2127933;27;20390;-69
2022/07/29 02:25:34;;;;;;;6.78;1.70;;;19.80;65.90;;;;;;2123180;27;20045;-69
2022/07/29 02:26:36;;;;;;;3.70;1.55;;;19.80;66.40;;;;;;2126106;27;20569;-69
2022/07/29 02:27:38;;;;;;;3.00;1.60;;;19.80;65.70;;;;;;2123526;27;20018;-69
2022/07/29 02:28:40;;;;;;;3.80;1.50;;;19.80;66.00;;;;;;2129038;27;20023;-69
2022/07/29 02:29:42;;;;;;;4.13;1.60;;;19.80;66.60;;;;;;2127110;27;20110;-69
2022/07/29 02:30:43;;;;;;;6.40;1.45;;;19.80;66.00;;;;;;2124412;27;20470;-69
2022/07/29 02:31:47;;;;;;;4.82;1.63;;;19.80;65.90;;;;;;2124378;27;20561;-69
2022/07/29 02:32:49;;;;;;;2.92;1.45;;;19.80;66.20;;;;;;2124954;27;20026;-69
2022/07/29 02:33:51;;;;;;;2.47;1.25;;;19.80;66.40;;;;;;2127164;27;20466;-69
2022/07/29 02:34:53;;;;;;;6.70;1.98;;;19.80;66.20;;;;;;2125575;27;20019;-69
2022/07/29 02:35:56;;;;;;;1.90;1.30;;;19.80;67.00;;;;;;2127754;27;20019;-69
2022/07/29 02:36:56;;;;;;;2.95;1.33;;;19.80;67.10;;;;;;2127512;27;20023;-69
2022/07/29 02:39:18;;;;;;;4.78;1.70;;;19.70;66.90;;;;;;2128823;27;20023;-69
2022/07/29 02:40:18;;;;;;;8.00;2.13;;;19.70;66.70;;;;;;2125682;27;20030;-69
2022/07/29 02:41:43;;;;;;;3.05;1.65;;;19.70;66.40;;;;;;2123466;27;20020;-69
2022/07/29 02:42:44;;;;;;;6.40;1.90;;;19.70;66.80;;;;;;2126764;27;20031;-69
2022/07/29 02:43:48;;;;;;;3.88;1.63;;;19.60;66.70;;;;;;2124041;27;20062;-69
2022/07/29 02:44:49;;;;;;;5.88;1.80;;;19.60;66.40;;;;;;2126236;27;20421;-69
2022/07/29 02:45:52;;;;;;;4.07;1.20;;;19.60;66.20;;;;;;2124155;27;20022;-68
2022/07/29 02:47:08;;;;;;;3.60;1.45;;;19.60;66.20;;;;;;2128225;27;20065;-68
2022/07/29 02:48:15;;;;;;;3.78;1.58;;;19.60;66.40;;;;;;2129301;27;20019;-68
2022/07/29 02:49:23;;;;;;;2.95;1.20;;;19.60;66.30;;;;;;2127000;27;20495;-68
2022/07/29 02:50:33;;;;;;;4.68;1.58;;;19.60;66.80;;;;;;2128452;27;20022;-68
2022/07/29 02:51:53;;;;;;;6.68;1.70;;;19.60;67.70;;;;;;2128207;27;20035;-68
2022/07/29 02:52:56;;;;;;;3.97;2.05;;;19.60;67.40;;;;;;2127167;27;20011;-68
2022/07/29 02:54:04;;;;;;;5.20;1.48;;;19.50;68.20;;;;;;2125008;27;20026;-68
2022/07/29 02:55:24;;;;;;;2.05;1.27;;;19.60;68.20;;;;;;2128327;27;20022;-68
2022/07/29 02:56:28;;;;;;;4.45;1.50;;;19.60;68.80;;;;;;2124466;27;20019;-68
2022/07/29 02:57:49;;;;;;;3.72;1.75;;;19.50;68.00;;;;;;2127965;27;20035;-68
2022/07/29 02:58:55;;;;;;;5.07;1.27;;;19.50;69.40;;;;;;2125516;27;20023;-68
2022/07/29 03:00:03;;;;;;;3.75;1.33;;;19.50;70.70;;;;;;2127470;27;20133;-68
2022/07/29 03:01:15;;;;;;;3.72;1.52;;;19.50;69.80;;;;;;2129193;27;20074;-68
2022/07/29 03:02:17;;;;;;;3.92;1.50;;;19.50;69.70;;;;;;2127815;27;20121;-68
2022/07/29 03:03:21;;;;;;;4.72;1.70;;;19.50;69.60;;;;;;2129866;27;20023;-68
2022/07/29 03:04:24;;;;;;;6.43;1.60;;;19.50;69.70;;;;;;2125956;27;20098;-68
2022/07/29 03:05:25;;;;;;;4.45;1.42;;;19.50;70.20;;;;;;2128306;27;20494;-68
2022/07/29 03:06:28;;;;;;;5.10;1.23;;;19.50;70.50;;;;;;2124380;27;20113;-68
2022/07/29 03:07:29;;;;;;;1.30;1.20;;;19.50;70.20;;;;;;2126358;27;20020;-68
2022/07/29 03:08:32;;;;;;;5.22;1.50;;;19.50;69.30;;;;;;2127154;27;20056;-68
2022/07/29 03:09:33;;;;;;;2.53;1.60;;;19.50;70.50;;;;;;2125986;27;20088;-68
2022/07/29 03:10:34;;;;;;;3.80;1.60;;;19.50;69.20;;;;;;2129178;27;20031;-68
2022/07/29 03:11:36;;;;;;;2.53;1.35;;;19.50;69.20;;;;;;2124816;27;20422;-68
2022/07/29 03:12:37;;;;;;;3.50;1.67;;;19.40;69.30;;;;;;2128502;27;20069;-68
2022/07/29 03:13:39;;;;;;;3.20;1.50;;;19.40;70.20;;;;;;2127452;27;20073;-68
2022/07/29 03:14:40;;;;;;;5.82;1.52;;;19.40;72.00;;;;;;2125824;27;20398;-68
2022/07/29 03:15:43;;;;;;;2.05;1.35;;;19.40;71.00;;;;;;2127490;27;20015;-68
2022/07/29 03:16:44;;;;;;;6.45;1.48;;;19.40;70.80;;;;;;2125274;27;20537;-68
2022/07/29 03:17:46;;;;;;;3.85;1.80;;;19.40;71.60;;;;;;2126865;27;20393;-68
2022/07/29 03:18:47;;;;;;;2.53;1.25;;;19.40;71.70;;;;;;2128013;27;20015;-68
2022/07/29 03:19:48;;;;;;;4.63;1.70;;;19.40;73.10;;;;;;2129479;27;20043;-68
2022/07/29 03:20:49;;;;;;;4.07;1.50;;;19.40;73.40;;;;;;2128315;27;20010;-68
2022/07/29 03:21:50;;;;;;;5.22;1.60;;;19.40;72.90;;;;;;2126217;27;20030;-68
2022/07/29 03:22:50;;;;;;;3.85;1.58;;;19.40;72.30;;;;;;2126078;27;20030;-68
2022/07/29 03:23:51;;;;;;;7.47;2.00;;;19.40;71.20;;;;;;2125286;27;20019;-68
2022/07/29 03:24:52;;;;;;;2.88;1.42;;;19.40;72.60;;;;;;2125429;27;20023;-68
2022/07/29 03:25:53;;;;;;;1.92;1.40;;;19.30;73.10;;;;;;2125071;27;20065;-68
2022/07/29 03:26:55;;;;;;;3.50;1.38;;;19.40;73.00;;;;;;2128223;27;20022;-68
2022/07/29 03:27:56;;;;;;;4.22;1.55;;;19.40;73.90;;;;;;2128492;27;20026;-68
2022/07/29 03:28:56;;;;;;;5.18;1.55;;;19.30;74.00;;;;;;2129952;27;20023;-68
2022/07/29 03:29:57;;;;;;;4.47;1.63;;;19.40;74.80;;;;;;2128051;27;20080;-68
2022/07/29 03:30:57;;;;;;;4.10;1.85;;;19.30;75.20;;;;;;2127376;27;20038;-68
2022/07/29 03:31:58;;;;;;;2.83;1.50;;;19.40;76.30;;;;;;2128716;27;20593;-68
2022/07/29 03:32:59;;;;;;;4.40;1.90;;;19.30;75.20;;;;;;2130120;27;20044;-68
2022/07/29 03:33:59;;;;;;;7.30;1.50;;;19.30;76.00;;;;;;2126776;27;20019;-68
2022/07/29 03:35:00;;;;;;;5.25;2.55;;;19.30;75.20;;;;;;2128463;27;20015;-68
2022/07/29 03:36:02;;;;;;;9.02;1.80;;;19.30;74.70;;;;;;2125936;27;20019;-68
2022/07/29 03:37:02;;;;;;;7.65;1.85;;;19.30;75.00;;;;;;2130300;27;20016;-68
2022/07/29 03:38:03;;;;;;;2.70;1.35;;;19.30;75.20;;;;;;2127054;27;20027;-68
2022/07/29 03:39:04;;;;;;;4.53;1.45;;;19.30;74.70;;;;;;2128856;27;20529;-68
2022/07/29 03:40:08;;;;;;;1.45;1.30;;;19.30;74.80;;;;;;2127416;27;20034;-68
2022/07/29 03:41:11;;;;;;;3.17;1.70;;;19.30;75.10;;;;;;2127634;27;20029;-68
2022/07/29 03:42:15;;;;;;;2.22;1.33;;;19.30;75.20;;;;;;2125430;27;20098;-68
2022/07/29 03:43:17;;;;;;;2.45;1.70;;;19.30;74.90;;;;;;2128758;27;20007;-68
2022/07/29 03:44:20;;;;;;;2.33;1.58;;;19.30;76.10;;;;;;2127484;27;20022;-68
2022/07/29 03:45:22;;;;;;;5.72;1.58;;;19.30;76.00;;;;;;2128441;27;20023;-68
2022/07/29 03:46:26;;;;;;;3.85;1.52;;;19.30;76.40;;;;;;2130001;27;20019;-68
2022/07/29 03:47:29;;;;;;;3.00;1.67;;;19.30;76.10;;;;;;2129387;27;20067;-68
2022/07/29 03:48:32;;;;;;;7.20;1.98;;;19.20;77.80;;;;;;2122351;27;20386;-68
2022/07/29 03:49:36;;;;;;;5.57;1.50;;;19.20;78.50;;;;;;2120975;27;20092;-68
2022/07/29 03:50:37;;;;;;;4.70;1.70;;;19.20;78.60;;;;;;2127539;27;20019;-68
2022/07/29 03:51:38;;;;;;;2.65;1.45;;;19.20;78.80;;;;;;2128500;27;20554;-68
2022/07/29 03:52:39;;;;;;;2.53;1.45;;;19.20;78.60;;;;;;2126048;27;20031;-68
2022/07/29 03:53:40;;;;;;;3.58;1.45;;;19.20;78.00;;;;;;2128547;27;20019;-68
2022/07/29 03:54:40;;;;;;;4.60;1.80;;;19.20;78.40;;;;;;2128798;27;20027;-68
2022/07/29 03:55:44;;;;;;;7.50;1.63;;;19.20;78.30;;;;;;2128821;27;20080;-68
2022/07/29 03:56:48;;;;;;;3.90;1.58;;;19.20;78.60;;;;;;2126528;27;20023;-68
2022/07/29 03:57:49;;;;;;;3.47;1.50;;;19.10;78.40;;;;;;2126501;27;20080;-68
2022/07/29 03:58:52;;;;;;;3.08;1.77;;;19.10;78.10;;;;;;2127732;27;20011;-68
2022/07/29 03:59:53;;;;;;;5.40;1.70;;;19.10;78.60;;;;;;2127949;27;20046;-68
2022/07/29 04:00:55;;;;;;;5.97;1.33;;;19.10;79.10;;;;;;2128290;27;20023;-68
2022/07/29 04:01:56;;;;;;;4.90;2.13;;;19.10;79.30;;;;;;2128583;27;20014;-68
2022/07/29 04:02:57;;;;;;;9.13;1.80;;;19.10;79.40;;;;;;2129930;27;20027;-68
2022/07/29 04:03:59;;;;;;;4.03;1.75;;;19.10;79.70;;;;;;2128464;27;20054;-68
2022/07/29 04:05:00;;;;;;;3.70;1.10;;;19.10;79.10;;;;;;2129418;27;20025;-68
2022/07/29 04:06:02;;;;;;;5.88;1.77;;;19.10;79.60;;;;;;2126946;27;20034;-68
2022/07/29 04:07:04;;;;;;;4.65;1.48;;;19.10;79.10;;;;;;2127608;27;20531;-68
2022/07/29 04:08:04;;;;;;;2.92;1.70;;;19.10;79.70;;;;;;2127622;27;20866;-68
2022/07/29 04:09:05;;;;;;;4.45;1.60;;;19.20;79.80;;;;;;2127828;27;20023;-68
2022/07/29 04:10:07;;;;;;;3.90;1.75;;;19.20;79.10;;;;;;2125289;27;20019;-68
2022/07/29 04:11:08;;;;;;;4.90;1.75;;;19.20;78.50;;;;;;2129045;27;20110;-68
2022/07/29 04:12:09;;;;;;;2.33;1.40;;;19.20;79.40;;;;;;2127090;27;20027;-68
2022/07/29 04:13:09;;;;;;;5.28;1.75;;;19.20;77.20;;;;;;2128208;27;20429;-68
2022/07/29 04:14:10;;;;;;;2.92;1.70;;;19.20;78.20;;;;;;2124914;27;20506;-68
2022/07/29 04:15:11;;;;;;;3.53;1.20;;;19.20;79.70;;;;;;2127183;27;20020;-68
2022/07/29 04:16:11;;;;;;;9.73;1.58;;;19.20;80.60;;;;;;2126237;27;20475;-68
2022/07/29 04:17:12;;;;;;;4.35;1.98;;;19.20;81.00;;;;;;2128587;27;20395;-68
2022/07/29 04:18:13;;;;;;;7.30;1.52;;;19.20;81.00;;;;;;2127635;27;20057;-68
2022/07/29 04:19:13;;;;;;;4.47;1.52;;;19.20;81.20;;;;;;2128185;27;20019;-68
2022/07/29 04:20:14;;;;;;;5.53;1.27;;;19.30;81.40;;;;;;2127677;27;20029;-68
2022/07/29 04:21:14;;;;;;;4.00;1.35;;;19.30;82.10;;;;;;2127173;27;20023;-68
2022/07/29 04:22:15;;;;;;;5.13;1.80;;;19.30;81.40;;;;;;2125948;27;20019;-68
2022/07/29 04:23:15;;;;;;;4.38;1.60;;;19.30;82.30;;;;;;2126272;27;20030;-68
2022/07/29 04:24:16;;;;;;;4.57;1.58;;;19.30;82.50;;;;;;2126982;27;20090;-68
2022/07/29 04:25:17;;;;;;;3.65;1.58;;;19.30;81.80;;;;;;2128720;27;20058;-68
2022/07/29 04:26:18;;;;;;;4.60;1.48;;;19.30;81.90;;;;;;2125845;27;20511;-68
2022/07/29 04:27:18;;;;;;;4.97;1.67;;;19.30;82.60;;;;;;2126580;27;20050;-69
2022/07/29 04:28:19;;;;;;;4.18;1.92;;;19.30;82.90;;;;;;2127954;27;20079;-69
2022/07/29 04:29:20;;;;;;;8.38;2.03;;;19.30;85.30;;;;;;2128405;27;20404;-69
2022/07/29 04:30:20;;;;;;;3.53;1.55;;;19.40;85.80;;;;;;2126466;27;20050;-69
2022/07/29 04:31:21;;;;;;;5.05;1.88;;;19.30;85.40;;;;;;2126289;27;20027;-69
2022/07/29 04:32:21;;;;;;;5.57;1.73;;;19.30;86.10;;;;;;2126475;27;20011;-68
2022/07/29 04:33:22;;;;;;;4.50;1.60;;;19.30;86.30;;;;;;2127553;27;20022;-68
2022/07/29 04:34:22;;;;;;;7.63;1.85;;;19.30;86.00;;;;;;2127019;27;20420;-68
2022/07/29 04:35:23;;;;;;;5.63;1.73;;;19.30;87.30;;;;;;2126604;27;20047;-69
2022/07/29 04:36:23;;;;;;;2.65;1.48;;;19.30;88.40;;;;;;2126281;27;20031;-69
2022/07/29 04:37:24;;;;;;;5.03;1.88;;;19.30;87.40;;;;;;2127305;27;20429;-69
2022/07/29 04:38:24;;;;;;;5.40;1.95;;;19.30;89.70;;;;;;2127506;27;20041;-69
2022/07/29 04:39:25;;;;;;;4.70;1.60;;;19.30;90.70;;;;;;2125775;27;20022;-69
2022/07/29 04:40:26;;;;;;;5.95;1.67;;;19.30;90.00;;;;;;2124577;27;20082;-69
2022/07/29 04:41:27;;;;;;;6.25;1.98;;;19.30;90.40;;;;;;2127214;27;20035;-69
2022/07/29 04:42:28;;;;;;;8.05;2.35;;;19.30;90.90;;;;;;2125885;27;20054;-69
2022/07/29 04:43:28;;;;;;;3.97;1.85;;;19.30;92.20;;;;;;2128653;27;20022;-69
2022/07/29 04:44:29;;;;;;;4.82;1.77;;;19.20;93.10;;;;;;2127725;27;20049;-69
2022/07/29 04:45:30;;;;;;;3.58;1.70;;;19.20;93.40;;;;;;2127368;27;20432;-69
2022/07/29 04:46:30;;;;;;;5.30;2.17;;;19.20;94.30;;;;;;2128497;27;20030;-69
2022/07/29 04:47:31;;;;;;;4.47;1.60;;;19.20;94.60;;;;;;2128014;27;20654;-69
2022/07/29 04:48:32;;;;;;;4.90;2.30;;;19.10;95.50;;;;;;2124843;27;20080;-69
2022/07/29 04:49:33;;;;;;;7.13;2.40;;;19.10;96.60;;;;;;2127418;27;20484;-69
2022/07/29 04:50:33;;;;;;;7.53;1.75;;;19.10;96.60;;;;;;2125531;27;20034;-69
2022/07/29 04:51:34;;;;;;;6.03;2.33;;;19.10;97.40;;;;;;2125777;27;20110;-69
2022/07/29 04:52:35;;;;;;;2.95;1.65;;;19.10;97.70;;;;;;2127581;27;20063;-69
2022/07/29 04:53:35;;;;;;;5.53;2.35;;;19.10;96.40;;;;;;2129278;27;20030;-69
2022/07/29 04:54:36;;;;;;;4.97;2.38;;;19.00;96.20;;;;;;2129735;27;20031;-69
2022/07/29 04:55:36;;;;;;;6.30;2.00;;;19.00;98.40;;;;;;2129317;27;20076;-69
2022/07/29 04:56:37;;;;;;;4.63;2.08;;;19.00;98.70;;;;;;2124927;27;20058;-69
2022/07/29 04:57:37;;;;;;;9.90;2.40;;;19.00;99.30;;;;;;2128605;27;20484;-69
2022/07/29 04:58:38;;;;;;;3.72;2.28;;;19.00;99.90;;;;;;2124678;27;20035;-69
2022/07/29 04:59:38;;;;;;;4.03;2.00;;;19.00;99.90;;;;;;2124839;27;20022;-69
2022/07/29 05:00:39;;;;;;;5.05;2.72;;;18.90;99.90;;;;;;2126939;27;20015;-69
2022/07/29 05:01:40;;;;;;;6.88;2.60;;;18.90;99.90;;;;;;2126776;27;20033;-69
2022/07/29 05:02:40;;;;;;;7.85;2.08;;;18.90;99.90;;;;;;2129181;27;20079;-69
2022/07/29 05:03:41;;;;;;;4.10;2.15;;;18.90;99.90;;;;;;2129441;27;20037;-69
2022/07/29 05:04:42;;;;;;;7.97;2.80;;;18.80;99.90;;;;;;2126163;27;20486;-69
2022/07/29 05:05:42;;;;;;;8.30;2.40;;;18.80;99.90;;;;;;2125564;27;20042;-69
2022/07/29 05:06:43;;;;;;;6.68;2.30;;;18.80;99.90;;;;;;2124212;27;20063;-69
2022/07/29 05:07:43;;;;;;;5.75;2.10;;;18.80;99.90;;;;;;2126556;27;20050;-71
2022/07/29 05:08:44;;;;;;;4.05;1.98;;;18.80;99.90;;;;;;2125948;27;20367;-69
2022/07/29 05:09:45;;;;;;;3.20;1.85;;;18.80;99.90;;;;;;2128782;27;20062;-69
2022/07/29 05:10:45;;;;;;;6.70;2.67;;;18.80;99.90;;;;;;2130258;27;20057;-69
2022/07/29 05:11:46;;;;;;;7.35;2.40;;;18.80;99.90;;;;;;2129984;27;20023;-69
2022/07/29 05:12:46;;;;;;;6.80;2.50;;;18.70;99.90;;;;;;2127046;27;20019;-70
2022/07/29 05:13:47;;;;;;;4.85;2.10;;;18.70;99.90;;;;;;2126650;27;20011;-69
2022/07/29 05:14:48;;;;;;;8.60;2.30;;;18.70;99.90;;;;;;2125196;27;20057;-69
2022/07/29 05:15:48;;;;;;;6.20;2.17;;;18.70;99.90;;;;;;2125120;27;20307;-70
2022/07/29 05:16:50;;;;;;;5.25;2.25;;;18.70;99.90;;;;;;2124640;27;20015;-69
2022/07/29 05:17:51;;;;;;;4.03;2.03;;;18.70;99.90;;;;;;2127183;27;20370;-70
2022/07/29 05:18:52;;;;;;;6.07;1.83;;;18.70;99.90;;;;;;2126890;27;20019;-70
2022/07/29 05:19:52;;;;;;;5.15;2.05;;;18.70;99.90;;;;;;2126826;27;20054;-70
2022/07/29 05:20:53;;;;;;;10.52;2.25;;;18.70;99.90;;;;;;2130824;27;20444;-70
2022/07/29 05:21:54;;;;;;;7.40;2.00;;;18.70;99.90;;;;;;2124960;27;20027;-70
2022/07/29 05:22:58;;;;;;;7.80;2.55;;;18.70;99.90;;;;;;2126897;27;20019;-70
2022/07/29 05:23:59;;;;;;;4.47;2.20;;;18.70;99.90;;;;;;2124551;27;20019;-69
2022/07/29 05:24:59;;;;;;;5.53;2.22;;;18.70;99.90;;;;;;2126568;27;20030;-69
2022/07/29 05:26:00;;;;;;;4.45;2.17;;;18.70;99.90;;;;;;2125854;27;20389;-69
2022/07/29 05:27:00;;;;;;;4.53;1.83;;;18.70;99.90;;;;;;2124805;27;20042;-69
2022/07/29 05:28:01;;;;;;;4.75;1.60;;;18.70;99.90;;;;;;2129617;27;20054;-69
2022/07/29 05:29:02;;;;;;;2.67;1.85;;;18.70;99.90;;;;;;2128604;27;20041;-69
2022/07/29 05:30:03;;;;;;;3.20;1.92;;;18.70;99.90;;;;;;2125272;27;20046;-69
2022/07/29 05:31:03;;;;;;;10.48;3.00;;;18.70;99.90;;;;;;2130288;27;20398;-69
2022/07/29 05:32:04;;;;;;;3.72;1.92;;;18.70;99.90;;;;;;2124214;27;20043;-69
2022/07/29 05:33:05;;;;;;;4.50;1.75;;;18.70;99.90;;;;;;2124727;27;20088;-69
2022/07/29 05:34:05;;;;;;;5.25;2.15;;;18.70;99.90;;;;;;2119974;27;20027;-69
2022/07/29 05:35:06;;;;;;;4.53;1.80;;;18.70;99.90;;;;;;2116740;27;20031;-69
2022/07/29 05:36:07;;;;;;;4.53;2.00;;;18.60;99.90;;;;;;2129547;27;20026;-69
2022/07/29 05:37:08;;;;;;;3.97;2.00;;;18.70;99.90;;;;;;2129348;27;20049;-69
2022/07/29 05:38:10;;;;;;;4.30;2.20;;;18.70;99.90;;;;;;2127735;27;20478;-69
2022/07/29 05:39:12;;;;;;;4.40;2.40;;;18.70;99.90;;;;;;2130494;27;20027;-70
2022/07/29 05:40:13;;;;;;;5.40;2.00;;;18.70;99.90;;;;;;2128839;27;20023;-69
2022/07/29 05:41:14;;;;;;;4.22;2.00;;;18.70;99.90;;;;;;2127712;27;20018;-69
2022/07/29 05:42:14;;;;;;;4.10;2.20;;;18.70;99.90;;;;;;2127949;27;20034;-69
2022/07/29 05:43:15;;;;;;;5.50;2.20;;;18.70;99.90;;;;;;2125877;27;20049;-69
2022/07/29 05:44:15;;;;;;;2.95;1.67;;;18.70;99.90;;;;;;2129880;27;20034;-69
2022/07/29 05:45:16;;;;;;;4.35;2.38;;;18.70;99.90;;;;;;2128733;27;20055;-69
2022/07/29 05:46:16;;;;;;;4.75;2.53;;;18.70;99.90;;;;;;2125192;27;20064;-69
2022/07/29 05:47:17;;;;;;;3.72;2.05;;;18.70;99.90;;;;;;2129943;27;20063;-69
2022/07/29 05:48:17;;;;;;;5.63;2.60;;;18.70;99.90;;;;;;2128397;27;20030;-69
2022/07/29 05:49:18;;;;;;;5.85;2.22;;;18.80;99.90;;;;;;2129437;27;20018;-69
2022/07/29 05:50:18;;;;;;;5.32;2.35;;;18.70;99.90;;;;;;2128790;27;20459;-69
2022/07/29 05:51:19;;;;;;;11.20;2.55;;;18.70;99.90;;;;;;2126743;27;20015;-69
2022/07/29 05:52:20;;;;;;;4.88;2.45;;;18.80;99.90;;;;;;2127303;27;20023;-69
2022/07/29 05:53:21;;;;;;;3.85;1.80;;;18.80;99.90;;;;;;2127879;27;20023;-69
2022/07/29 05:54:21;;;;;;;4.55;2.20;;;18.80;99.90;;;;;;2126774;27;20014;-69
2022/07/29 05:55:22;;;;;;;6.03;2.80;;;18.80;99.90;;;;;;2121564;27;20027;-69
2022/07/29 05:56:23;;;;;;;3.33;2.33;;;18.80;99.90;;;;;;2120678;27;20462;-69
2022/07/29 05:57:24;;;;;;;6.85;2.10;;;18.80;99.90;;;;;;2118970;27;20015;-69
2022/07/29 05:58:25;;;;;;;5.97;2.55;;;18.80;99.90;;;;;;2127114;27;20046;-69
2022/07/29 05:59:25;;;;;;;7.50;3.05;;;18.80;99.90;;;;;;2128007;27;20485;-69
2022/07/29 06:00:26;;;;;;;5.30;2.25;;;18.80;99.90;;;;;;2127215;27;20098;-69
2022/07/29 06:01:27;;;;;;;4.68;2.47;;;18.80;99.90;;;;;;2126262;27;20018;-69
2022/07/29 06:02:27;;;;;;;7.32;2.90;;;18.80;99.90;;;;;;2126802;27;20026;-69
2022/07/29 06:03:28;;;;;;;4.28;2.50;;;18.80;99.90;;;;;;2128211;27;20340;-70
2022/07/29 06:04:28;;;;;;;6.45;2.85;;;18.80;99.90;;;;;;2127531;27;20066;-70
2022/07/29 06:05:29;;;;;;;5.07;2.10;;;18.80;99.90;;;;;;2128447;27;20109;-69
2022/07/29 06:06:29;;;;;;;5.30;2.42;;;18.80;99.90;;;;;;2123625;27;20042;-69
2022/07/29 06:07:32;;;;;;;5.45;2.70;;;18.80;99.90;;;;;;2126865;27;20103;-70
2022/07/29 06:08:33;;;;;;;3.17;2.55;;;18.80;99.90;;;;;;2126796;27;20884;-70
2022/07/29 06:09:34;;;;;;;5.55;2.40;;;18.80;99.90;;;;;;2127120;27;20115;-69
2022/07/29 06:10:35;;;;;;;7.47;2.42;;;18.70;99.90;;;;;;2127802;27;20042;-69
2022/07/29 06:11:36;;;;;;;3.40;2.30;;;18.70;99.90;;;;;;2127529;27;20027;-69
2022/07/29 06:12:36;;;;;;;5.53;2.53;;;18.70;99.90;;;;;;2129025;27;20050;-69
2022/07/29 06:13:37;;;;;;;5.50;2.60;;;18.70;99.90;;;;;;2125425;27;20803;-69
2022/07/29 06:14:38;;;;;;;5.25;2.38;;;18.70;99.90;;;;;;2129677;27;20051;-69